createdAt,value
2019-05-14T00:00:52.521Z,11.50
2019-05-14T00:03:22.106Z,11.50
2019-05-14T00:05:51.874Z,11.50
2019-05-14T00:08:22.301Z,11.40
2019-05-14T00:10:52.249Z,11.30
2019-05-14T00:13:21.801Z,11.30
2019-05-14T00:15:52.141Z,11.20
2019-05-14T00:18:22.509Z,11.30
2019-05-14T00:20:52.286Z,11.30
2019-05-14T00:23:21.927Z,11.30
2019-05-14T00:25:52.344Z,11.10
2019-05-14T00:28:22.086Z,10.90
2019-05-14T00:30:52.446Z,10.90
2019-05-14T00:33:22.656Z,10.90
2019-05-14T00:35:52.459Z,10.90
2019-05-14T00:38:22.532Z,11.00
2019-05-14T00:40:52.198Z,11.10
2019-05-14T00:43:21.947Z,11.10
2019-05-14T00:45:51.524Z,11.10
2019-05-14T00:48:22.183Z,11.10
2019-05-14T00:50:51.900Z,11.20
2019-05-14T00:53:21.574Z,11.20
2019-05-14T00:55:51.793Z,11.20
2019-05-14T00:58:21.912Z,11.30
2019-05-14T01:00:52.559Z,11.10
2019-05-14T01:03:22.442Z,11.10
2019-05-14T01:05:52.441Z,11.20
2019-05-14T01:08:22.202Z,11.20
2019-05-14T01:10:51.787Z,11.20
2019-05-14T01:13:21.902Z,11.10
2019-05-14T01:15:52.309Z,11.10
2019-05-14T01:18:22.135Z,11.10
2019-05-14T01:20:52.100Z,10.90
2019-05-14T01:23:21.828Z,10.70
2019-05-14T01:25:51.770Z,10.70
2019-05-14T01:28:21.729Z,10.80
2019-05-14T01:30:52.013Z,10.70
2019-05-14T01:33:22.114Z,10.50
2019-05-14T01:35:51.757Z,10.50
2019-05-14T01:38:22.111Z,10.50
2019-05-14T01:40:52.546Z,10.40
2019-05-14T01:43:22.334Z,10.30
2019-05-14T01:45:52.437Z,10.30
2019-05-14T01:48:22.490Z,10.40
2019-05-14T01:50:52.261Z,10.40
2019-05-14T01:53:22.182Z,10.30
2019-05-14T01:55:52.247Z,10.30
2019-05-14T01:58:22.190Z,10.30
2019-05-14T02:00:52.424Z,10.30
2019-05-14T02:03:22.272Z,10.30
2019-05-14T02:05:52.188Z,10.30
2019-05-14T02:08:22.229Z,10.20
2019-05-14T02:10:52.652Z,10.20
2019-05-14T02:13:22.546Z,10.20
2019-05-14T02:15:52.234Z,10.10
2019-05-14T02:18:22.037Z,10.10
2019-05-14T02:20:52.257Z,10.00
2019-05-14T02:23:22.683Z,10.00
2019-05-14T02:25:52.431Z,9.90
2019-05-14T02:28:22.277Z,9.90
2019-05-14T02:30:58.015Z,9.90
2019-05-14T02:33:23.168Z,9.70
2019-05-14T02:35:52.765Z,9.70
2019-05-14T02:38:22.308Z,9.70
2019-05-14T02:40:51.925Z,9.60
2019-05-14T02:43:21.630Z,9.60
2019-05-14T02:46:09.720Z,9.50
2019-05-14T02:48:22.453Z,9.50
2019-05-14T02:50:52.058Z,9.50
2019-05-14T02:53:21.629Z,9.50
2019-05-14T02:55:51.107Z,9.60
2019-05-14T02:58:21.203Z,9.80
2019-05-14T03:00:50.936Z,9.60
2019-05-14T03:03:20.459Z,9.50
2019-05-14T03:05:50.103Z,9.50
2019-05-14T03:08:20.137Z,9.30
2019-05-14T03:10:50.473Z,9.10
2019-05-14T03:13:20.583Z,9.20
2019-05-14T03:15:50.496Z,9.20
2019-05-14T03:18:20.358Z,9.20
2019-05-14T03:20:50.575Z,9.20
2019-05-14T03:23:23.085Z,9.10
2019-05-14T03:25:51.796Z,9.10
2019-05-14T03:28:21.363Z,9.10
2019-05-14T03:30:52.886Z,9.10
2019-05-14T03:33:22.670Z,9.20
2019-05-14T03:36:01.194Z,9.10
2019-05-14T03:38:23.655Z,9.00
2019-05-14T03:40:53.349Z,9.10
2019-05-14T03:43:22.997Z,9.20
2019-05-14T03:45:52.726Z,9.10
2019-05-14T03:48:22.374Z,9.20
2019-05-14T03:50:52.037Z,9.20
2019-05-14T03:53:22.290Z,9.00
2019-05-14T03:55:52.022Z,9.00
2019-05-14T03:58:21.671Z,9.00
2019-05-14T04:01:03.483Z,8.90
2019-05-14T04:03:33.118Z,8.90
2019-05-14T04:06:03.832Z,8.90
2019-05-14T04:08:34.996Z,8.90
2019-05-14T04:11:04.613Z,8.90
2019-05-14T04:13:35.715Z,9.00
2019-05-14T04:16:05.378Z,8.90
2019-05-14T04:18:40.199Z,8.90
2019-05-14T04:21:10.360Z,8.90
2019-05-14T04:23:43.536Z,8.90
2019-05-14T04:26:13.429Z,8.80
2019-05-14T04:28:45.792Z,8.90
2019-05-14T04:31:19.123Z,9.00
2019-05-14T04:33:50.054Z,9.20
2019-05-14T04:36:20.033Z,9.10
2019-05-14T04:38:54.191Z,9.00
2019-05-14T04:41:20.948Z,9.00
2019-05-14T04:43:50.742Z,8.90
2019-05-14T04:46:20.470Z,8.90
2019-05-14T04:48:51.159Z,9.10
2019-05-14T04:51:21.188Z,9.10
2019-05-14T04:53:50.817Z,9.10
2019-05-14T04:56:20.672Z,9.10
2019-05-14T04:58:50.604Z,9.10
2019-05-14T05:01:21.342Z,9.00
2019-05-14T05:03:51.139Z,8.90
2019-05-14T05:06:20.862Z,9.00
2019-05-14T05:08:50.515Z,9.00
2019-05-14T05:11:21.328Z,9.10
2019-05-14T05:13:51.378Z,9.00
2019-05-14T05:16:20.925Z,9.00
2019-05-14T05:18:51.656Z,8.90
2019-05-14T05:21:21.242Z,9.00
2019-05-14T05:23:50.816Z,9.10
2019-05-14T05:26:20.394Z,9.20
2019-05-14T05:29:02.991Z,9.10
2019-05-14T05:31:21.230Z,9.10
2019-05-14T05:33:51.349Z,9.10
2019-05-14T05:36:20.903Z,9.20
2019-05-14T05:38:50.472Z,9.20
2019-05-14T05:41:19.970Z,9.20
2019-05-14T05:43:49.541Z,9.20
2019-05-14T05:46:19.451Z,9.20
2019-05-14T05:48:49.154Z,9.20
2019-05-14T05:51:19.064Z,9.20
2019-05-14T05:53:48.754Z,9.20
2019-05-14T05:56:18.839Z,9.10
2019-05-14T05:58:49.042Z,9.20
2019-05-14T06:01:19.543Z,9.30
2019-05-14T06:03:49.687Z,9.30
2019-05-14T06:06:19.559Z,9.40
2019-05-14T06:08:49.528Z,9.50
2019-05-14T06:11:19.701Z,9.50
2019-05-14T06:13:49.349Z,9.70
2019-05-14T06:16:18.994Z,9.60
2019-05-14T06:18:52.040Z,9.80
2019-05-14T06:21:21.658Z,9.80
2019-05-14T06:23:51.395Z,9.80
2019-05-14T06:26:20.978Z,9.90
2019-05-14T06:28:51.886Z,10.10
2019-05-14T06:31:22.329Z,10.10
2019-05-14T06:33:52.918Z,10.10
2019-05-14T06:36:22.489Z,10.10
2019-05-14T06:38:52.196Z,10.10
2019-05-14T06:41:22.482Z,10.30
2019-05-14T06:43:52.058Z,10.50
2019-05-14T06:46:21.714Z,10.50
2019-05-14T06:48:51.269Z,10.50
2019-05-14T06:51:21.017Z,10.60
2019-05-14T06:53:50.561Z,10.60
2019-05-14T06:56:21.860Z,10.60
2019-05-14T06:58:51.572Z,10.60
2019-05-14T07:01:21.292Z,10.70
2019-05-14T07:03:50.836Z,10.70
2019-05-14T07:06:20.507Z,10.50
2019-05-14T07:08:52.644Z,10.70
2019-05-14T07:11:21.353Z,10.90
2019-05-14T07:13:50.981Z,10.90
2019-05-14T07:16:20.584Z,10.70
2019-05-14T07:18:53.990Z,10.90
2019-05-14T07:21:21.388Z,10.90
2019-05-14T07:23:51.018Z,11.00
2019-05-14T07:26:20.584Z,10.90
2019-05-14T07:28:50.192Z,10.60
2019-05-14T07:31:19.748Z,10.70
2019-05-14T07:33:49.670Z,10.90
2019-05-14T07:36:19.442Z,11.10
2019-05-14T07:38:49.466Z,11.10
2019-05-14T07:41:19.571Z,11.20
2019-05-14T07:43:49.352Z,11.20
2019-05-14T07:46:19.426Z,11.20
2019-05-14T07:49:03.877Z,11.20
2019-05-14T07:51:20.382Z,11.30
2019-05-14T07:53:49.984Z,11.40
2019-05-14T07:56:19.541Z,11.60
2019-05-14T07:58:49.428Z,11.60
2019-05-14T08:01:19.099Z,11.70
2019-05-14T08:03:49.213Z,11.70
2019-05-14T08:06:19.260Z,11.50
2019-05-14T08:08:49.719Z,11.40
2019-05-14T08:11:20.395Z,11.30
2019-05-14T08:13:51.343Z,11.30
2019-05-14T08:16:21.533Z,11.50
2019-05-14T08:18:52.001Z,11.60
2019-05-14T08:21:21.519Z,11.90
2019-05-14T08:23:51.099Z,12.00
2019-05-14T08:26:20.749Z,12.10
2019-05-14T08:28:50.336Z,12.10
2019-05-14T08:31:19.900Z,12.10
2019-05-14T08:33:49.493Z,12.20
2019-05-14T08:36:19.339Z,12.20
2019-05-14T08:38:50.093Z,12.00
2019-05-14T08:41:20.182Z,11.90
2019-05-14T08:43:49.754Z,11.80
2019-05-14T08:46:19.560Z,11.90
2019-05-14T08:48:49.921Z,12.20
2019-05-14T08:51:19.813Z,12.20
2019-05-14T08:53:50.525Z,12.30
2019-05-14T08:56:20.418Z,12.20
2019-05-14T08:58:50.020Z,12.30
2019-05-14T09:01:19.934Z,12.40
2019-05-14T09:03:49.964Z,12.50
2019-05-14T09:06:19.764Z,12.70
2019-05-14T09:08:49.981Z,12.50
2019-05-14T09:11:24.597Z,12.40
2019-05-14T09:13:51.148Z,12.50
2019-05-14T09:16:38.048Z,12.50
2019-05-14T09:18:51.897Z,12.60
2019-05-14T09:21:21.510Z,12.60
2019-05-14T09:23:51.101Z,12.80
2019-05-14T09:26:20.645Z,12.80
2019-05-14T09:28:50.229Z,12.60
2019-05-14T09:31:20.158Z,12.60
2019-05-14T09:33:50.112Z,12.60
2019-05-14T09:36:23.889Z,12.80
2019-05-14T09:38:50.927Z,13.10
2019-05-14T09:41:21.975Z,13.20
2019-05-14T09:43:51.559Z,13.30
2019-05-14T09:46:21.126Z,13.20
2019-05-14T09:48:50.706Z,13.30
2019-05-14T09:51:20.221Z,13.50
2019-05-14T09:53:49.758Z,13.50
2019-05-14T09:56:19.333Z,13.50
2019-05-14T09:58:49.591Z,13.50
2019-05-14T10:01:19.824Z,13.60
2019-05-14T10:03:51.169Z,13.80
2019-05-14T10:06:21.041Z,13.90
2019-05-14T10:08:50.755Z,13.70
2019-05-14T10:11:20.321Z,13.60
2019-05-14T10:13:49.903Z,13.70
2019-05-14T10:16:19.500Z,13.80
2019-05-14T10:18:52.390Z,13.80
2019-05-14T10:21:20.300Z,13.80
2019-05-14T10:23:49.866Z,13.70
2019-05-14T10:26:19.447Z,13.80
2019-05-14T10:28:49.094Z,13.90
2019-05-14T10:31:19.052Z,13.90
2019-05-14T10:33:48.806Z,14.00
2019-05-14T10:36:19.352Z,13.80
2019-05-14T10:38:49.372Z,13.80
2019-05-14T10:41:20.555Z,13.90
2019-05-14T10:43:50.213Z,14.10
2019-05-14T10:46:19.789Z,14.20
2019-05-14T10:48:49.277Z,14.30
2019-05-14T10:51:18.870Z,14.30
2019-05-14T10:53:49.111Z,14.30
2019-05-14T10:56:19.567Z,14.30
2019-05-14T10:58:49.384Z,14.30
2019-05-14T11:01:21.873Z,14.30
2019-05-14T11:03:50.946Z,14.30
2019-05-14T11:06:24.001Z,14.40
2019-05-14T11:08:59.271Z,14.50
2019-05-14T11:11:34.357Z,14.80
2019-05-14T11:14:08.931Z,14.70
2019-05-14T11:16:48.576Z,14.70
2019-05-14T11:19:23.094Z,14.70
2019-05-14T11:22:05.083Z,14.70
2019-05-14T11:24:43.949Z,14.70
2019-05-14T11:27:24.440Z,14.80
2019-05-14T11:30:00.610Z,15.00
2019-05-14T11:32:42.100Z,15.30
2019-05-14T11:35:19.892Z,15.30
2019-05-14T11:37:58.996Z,15.30
2019-05-14T11:40:39.249Z,15.20
2019-05-14T11:43:22.849Z,15.20
2019-05-14T11:46:01.547Z,15.30
2019-05-14T11:48:43.121Z,15.40
2019-05-14T11:51:53.025Z,15.50
2019-05-14T11:53:52.048Z,15.50
2019-05-14T11:56:30.560Z,15.70
2019-05-14T11:59:12.895Z,15.60
2019-05-14T12:01:50.075Z,15.70
2019-05-14T12:04:28.380Z,15.70
2019-05-14T12:07:13.118Z,15.60
2019-05-14T12:09:52.528Z,15.60
2019-05-14T12:12:33.943Z,15.50
2019-05-14T12:15:28.291Z,15.60
2019-05-14T12:18:11.631Z,15.50
2019-05-14T12:20:49.699Z,15.30
2019-05-14T12:23:29.817Z,15.20
2019-05-14T12:26:03.619Z,15.20
2019-05-14T12:28:33.425Z,15.30
2019-05-14T12:31:03.340Z,15.50
2019-05-14T12:33:33.201Z,15.70
2019-05-14T12:36:02.922Z,15.70
2019-05-14T12:38:32.722Z,15.60
2019-05-14T12:41:02.420Z,15.60
2019-05-14T12:43:32.123Z,15.60
2019-05-14T12:46:01.931Z,15.50
2019-05-14T12:48:31.675Z,15.70
2019-05-14T12:51:01.367Z,15.80
2019-05-14T12:53:31.265Z,15.80
2019-05-14T12:56:01.087Z,15.90
2019-05-14T12:58:31.011Z,16.10
2019-05-14T13:01:00.662Z,16.10
2019-05-14T13:03:30.524Z,16.10
2019-05-14T13:06:00.189Z,16.00
2019-05-14T13:08:30.028Z,16.10
2019-05-14T13:10:59.595Z,16.10
2019-05-14T13:13:29.340Z,16.10
2019-05-14T13:15:59.234Z,16.20
2019-05-14T13:18:30.154Z,16.50
2019-05-14T13:21:09.056Z,16.40
2019-05-14T13:23:42.555Z,16.50
2019-05-14T13:26:21.090Z,16.50
2019-05-14T13:28:51.934Z,16.50
2019-05-14T13:31:29.220Z,16.60
2019-05-14T13:34:03.523Z,16.80
2019-05-14T13:36:40.072Z,16.70
2019-05-14T13:39:16.008Z,16.70
2019-05-14T13:41:48.528Z,16.90
2019-05-14T13:44:25.079Z,16.80
2019-05-14T13:46:54.853Z,16.70
2019-05-14T13:49:29.834Z,16.80
2019-05-14T13:52:04.986Z,17.00
2019-05-14T13:54:39.495Z,16.90
2019-05-14T13:57:12.114Z,16.90
2019-05-14T13:59:43.979Z,16.70
2019-05-14T14:02:11.935Z,16.80
2019-05-14T14:04:41.592Z,16.80
2019-05-14T14:07:11.516Z,16.90
2019-05-14T14:09:41.101Z,16.80
2019-05-14T14:12:10.686Z,16.90
2019-05-14T14:14:40.234Z,16.90
2019-05-14T14:17:09.945Z,16.90
2019-05-14T14:19:39.525Z,17.10
2019-05-14T14:22:09.898Z,17.00
2019-05-14T14:24:39.683Z,17.00
2019-05-14T14:27:09.342Z,17.30
2019-05-14T14:29:39.677Z,17.30
2019-05-14T14:32:11.334Z,17.30
2019-05-14T14:34:41.508Z,17.50
2019-05-14T14:37:11.502Z,17.60
2019-05-14T14:39:41.219Z,17.70
2019-05-14T14:42:10.753Z,17.60
2019-05-14T14:44:40.348Z,17.60
2019-05-14T14:47:09.933Z,18.00
2019-05-14T14:49:42.894Z,17.80
2019-05-14T14:52:12.173Z,17.70
2019-05-14T14:54:42.595Z,17.70
2019-05-14T14:57:12.625Z,17.70
2019-05-14T14:59:42.204Z,18.00
2019-05-14T15:02:11.777Z,17.90
2019-05-14T15:04:41.375Z,17.80
2019-05-14T15:07:10.986Z,17.70
2019-05-14T15:09:40.816Z,17.90
2019-05-14T15:12:10.334Z,18.30
2019-05-14T15:14:39.944Z,18.70
2019-05-14T15:17:10.628Z,18.60
2019-05-14T15:19:41.202Z,18.50
2019-05-14T15:22:10.780Z,18.50
2019-05-14T15:24:40.358Z,18.90
2019-05-14T15:27:15.011Z,18.60
2019-05-14T15:29:43.195Z,18.50
2019-05-14T15:32:12.351Z,18.30
2019-05-14T15:34:41.925Z,18.00
2019-05-14T15:37:11.489Z,18.00
2019-05-14T15:39:41.062Z,18.00
2019-05-14T15:42:13.874Z,18.40
2019-05-14T15:44:52.035Z,18.40
2019-05-14T15:47:13.152Z,18.60
2019-05-14T15:49:42.743Z,18.40
2019-05-14T15:52:12.302Z,18.40
2019-05-14T15:54:46.622Z,18.20
2019-05-14T15:57:13.138Z,18.30
2019-05-14T15:59:42.723Z,18.50
2019-05-14T16:02:12.310Z,18.50
2019-05-14T16:04:41.836Z,18.40
2019-05-14T16:07:11.659Z,18.70
2019-05-14T16:09:41.247Z,18.60
2019-05-14T16:12:10.866Z,18.70
2019-05-14T16:14:40.374Z,18.60
2019-05-14T16:17:11.917Z,18.80
2019-05-14T16:19:41.435Z,18.90
2019-05-14T16:22:11.278Z,19.20
2019-05-14T16:24:55.860Z,19.60
2019-05-14T16:27:12.172Z,20.00
2019-05-14T16:29:46.011Z,20.40
2019-05-14T16:32:12.969Z,20.80
2019-05-14T16:34:42.529Z,21.80
2019-05-14T16:37:12.041Z,22.60
2019-05-14T16:39:41.913Z,22.60
2019-05-14T16:42:11.511Z,22.60
2019-05-14T16:44:41.089Z,22.40
2019-05-14T16:47:10.731Z,22.10
2019-05-14T16:49:40.305Z,22.20
2019-05-14T16:52:10.068Z,22.00
2019-05-14T16:54:39.737Z,22.40
2019-05-14T16:57:11.067Z,22.70
2019-05-14T16:59:40.546Z,22.60
2019-05-14T17:02:10.187Z,22.10
2019-05-14T17:04:39.774Z,22.10
2019-05-14T17:07:09.740Z,22.20
2019-05-14T17:09:39.513Z,22.70
2019-05-14T17:12:09.262Z,22.60
2019-05-14T17:14:38.833Z,22.30
2019-05-14T17:17:09.085Z,21.70
2019-05-14T17:19:38.884Z,20.90
2019-05-14T17:22:24.439Z,20.50
2019-05-14T17:24:40.122Z,20.20
2019-05-14T17:27:09.869Z,19.90
2019-05-14T17:29:39.942Z,19.80
2019-05-14T17:32:09.566Z,19.60
2019-05-14T17:34:39.576Z,19.40
2019-05-14T17:37:09.198Z,19.30
2019-05-14T17:39:38.976Z,19.20
2019-05-14T17:42:11.657Z,19.20
2019-05-14T17:44:41.261Z,19.20
2019-05-14T17:47:12.434Z,18.90
2019-05-14T17:49:42.178Z,18.50
2019-05-14T17:52:12.325Z,18.40
2019-05-14T17:54:42.255Z,18.20
2019-05-14T17:57:11.950Z,18.40
2019-05-14T17:59:41.557Z,18.50
2019-05-14T18:02:11.139Z,18.40
2019-05-14T18:04:40.743Z,18.30
2019-05-14T18:07:10.314Z,18.00
2019-05-14T18:09:39.899Z,18.00
2019-05-14T18:12:09.450Z,18.00
2019-05-14T18:14:39.021Z,17.90
2019-05-14T18:17:08.980Z,17.80
2019-05-14T18:19:38.803Z,17.70
2019-05-14T18:22:08.850Z,17.80
2019-05-14T18:24:39.401Z,17.60
2019-05-14T18:27:09.059Z,17.60
2019-05-14T18:29:39.136Z,17.60
2019-05-14T18:32:09.200Z,17.50
2019-05-14T18:34:39.997Z,17.40
2019-05-14T18:37:13.741Z,17.30
2019-05-14T18:39:40.856Z,17.30
2019-05-14T18:42:10.537Z,17.30
2019-05-14T18:44:40.105Z,17.30
2019-05-14T18:47:09.764Z,17.10
2019-05-14T18:49:39.330Z,16.90
2019-05-14T18:52:09.065Z,16.90
2019-05-14T18:54:38.947Z,17.10
2019-05-14T18:57:11.770Z,17.10
2019-05-14T18:59:39.885Z,17.00
2019-05-14T19:02:09.543Z,16.90
2019-05-14T19:04:39.125Z,17.00
2019-05-14T19:07:08.735Z,17.00
2019-05-14T19:09:38.968Z,16.80
2019-05-14T19:12:08.601Z,16.60
2019-05-14T19:14:39.094Z,16.70
2019-05-14T19:17:09.229Z,16.80
2019-05-14T19:19:38.937Z,16.70
2019-05-14T19:22:08.504Z,16.60
2019-05-14T19:24:38.355Z,16.60
2019-05-14T19:27:09.073Z,16.60
2019-05-14T19:29:38.947Z,16.60
2019-05-14T19:32:08.766Z,16.60
2019-05-14T19:34:38.409Z,16.40
2019-05-14T19:37:08.295Z,16.30
2019-05-14T19:39:38.639Z,16.20
2019-05-14T19:42:08.724Z,16.20
2019-05-14T19:44:40.392Z,16.30
2019-05-14T19:47:09.620Z,16.20
2019-05-14T19:49:39.192Z,16.20
2019-05-14T19:52:08.762Z,16.20
2019-05-14T19:54:38.582Z,16.20
2019-05-14T19:57:09.964Z,16.10
2019-05-14T19:59:39.417Z,16.10
2019-05-14T20:02:09.557Z,16.10
2019-05-14T20:04:39.253Z,16.00
2019-05-14T20:07:09.040Z,16.00
2019-05-14T20:09:38.956Z,15.80
2019-05-14T20:12:08.720Z,15.80
2019-05-14T20:14:38.425Z,15.80
2019-05-14T20:17:08.905Z,15.80
2019-05-14T20:19:39.555Z,15.80
2019-05-14T20:22:09.357Z,15.80
2019-05-14T20:24:41.542Z,15.70
2019-05-14T20:27:12.224Z,15.60
2019-05-14T20:29:41.432Z,15.60
2019-05-14T20:32:11.031Z,15.50
2019-05-14T20:34:40.584Z,15.40
2019-05-14T20:37:10.164Z,15.30
2019-05-14T20:39:39.743Z,15.20
2019-05-14T20:42:09.336Z,15.20
2019-05-14T20:44:38.873Z,15.10
2019-05-14T20:47:09.162Z,14.90
2019-05-14T20:49:38.864Z,15.10
2019-05-14T20:52:08.754Z,15.10
2019-05-14T20:54:38.524Z,15.00
2019-05-14T20:57:22.985Z,15.10
2019-05-14T20:59:39.300Z,15.00
2019-05-14T21:02:08.980Z,14.90
2019-05-14T21:04:38.543Z,14.80
2019-05-14T21:07:08.416Z,14.80
2019-05-14T21:09:39.870Z,14.80
2019-05-14T21:12:09.463Z,14.90
2019-05-14T21:14:41.396Z,15.00
2019-05-14T21:17:10.289Z,15.00
2019-05-14T21:19:39.872Z,15.10
2019-05-14T21:22:09.557Z,15.10
2019-05-14T21:24:39.439Z,15.00
2019-05-14T21:27:09.449Z,14.70
2019-05-14T21:29:39.296Z,14.60
2019-05-14T21:32:08.874Z,14.60
2019-05-14T21:34:38.505Z,14.60
2019-05-14T21:37:08.987Z,14.60
2019-05-14T21:39:41.012Z,14.40
2019-05-14T21:42:10.966Z,14.20
2019-05-14T21:44:40.683Z,14.20
2019-05-14T21:47:10.308Z,14.30
2019-05-14T21:49:39.894Z,14.30
2019-05-14T21:52:09.488Z,14.30
2019-05-14T21:54:39.689Z,14.40
2019-05-14T21:57:11.825Z,14.30
2019-05-14T21:59:40.520Z,14.30
2019-05-14T22:02:21.817Z,14.50
2019-05-14T22:04:42.081Z,14.50
2019-05-14T22:07:11.676Z,14.50
2019-05-14T22:09:41.445Z,14.40
2019-05-14T22:12:11.189Z,14.10
2019-05-14T22:14:40.775Z,14.10
2019-05-14T22:17:10.488Z,14.10
2019-05-14T22:19:40.085Z,14.20
2019-05-14T22:22:09.668Z,14.20
2019-05-14T22:24:39.279Z,14.10
2019-05-14T22:27:09.376Z,14.10
2019-05-14T22:29:39.094Z,14.00
2019-05-14T22:32:08.695Z,14.00
2019-05-14T22:34:41.337Z,13.90
2019-05-14T22:37:09.529Z,14.00
2019-05-14T22:39:39.207Z,14.00
2019-05-14T22:42:09.351Z,14.00
2019-05-14T22:44:38.990Z,13.80
2019-05-14T22:47:08.673Z,13.80
2019-05-14T22:49:38.300Z,13.80
2019-05-14T22:52:08.356Z,13.80
2019-05-14T22:54:38.773Z,13.80
2019-05-14T22:57:08.521Z,13.80
2019-05-14T22:59:39.267Z,13.80
2019-05-14T23:02:11.334Z,13.70
2019-05-14T23:04:40.467Z,13.70
2019-05-14T23:07:10.083Z,13.60
2019-05-14T23:09:39.713Z,13.40
2019-05-14T23:12:12.091Z,13.30
2019-05-14T23:14:40.566Z,13.30
2019-05-14T23:17:10.514Z,13.40
2019-05-14T23:19:40.091Z,13.50
2019-05-14T23:22:09.703Z,13.50
2019-05-14T23:24:39.295Z,13.40
2019-05-14T23:27:08.912Z,13.40
2019-05-14T23:29:38.621Z,13.40
2019-05-14T23:32:08.270Z,13.30
2019-05-14T23:34:38.098Z,13.20
2019-05-14T23:37:08.329Z,13.20
2019-05-14T23:39:38.332Z,13.20
2019-05-14T23:42:09.149Z,13.10
2019-05-14T23:44:39.010Z,13.00
2019-05-14T23:47:08.599Z,12.90
2019-05-14T23:49:38.906Z,12.80
2019-05-14T23:52:08.593Z,12.90
2019-05-14T23:54:38.723Z,13.00
2019-05-14T23:57:08.914Z,13.10
2019-05-14T23:59:41.256Z,13.10
